sensor_id;sensor_type;location;lat;lon;timestamp;P1;durP1;ratioP1;P2;durP2;ratioP2
16075;SDS011;8142;48.242;11.644;2024-01-30T00:01:30;13.33;;;7.57;;
16075;SDS011;8142;48.242;11.644;2024-01-30T00:03:56;10.43;;;7.00;;
16075;SDS011;8142;48.242;11.644;2024-01-30T00:06:22;12.37;;;8.00;;
16075;SDS011;8142;48.242;11.644;2024-01-30T00:08:49;12.37;;;7.90;;
16075;SDS011;8142;48.242;11.644;2024-01-30T00:11:16;11.40;;;7.80;;
16075;SDS011;8142;48.242;11.644;2024-01-30T00:13:43;14.53;;;9.50;;
16075;SDS011;8142;48.242;11.644;2024-01-30T00:16:19;10.97;;;7.53;;
16075;SDS011;8142;48.242;11.644;2024-01-30T00:18:46;12.07;;;7.60;;
16075;SDS011;8142;48.242;11.644;2024-01-30T00:21:12;11.47;;;7.73;;
16075;SDS011;8142;48.242;11.644;2024-01-30T00:23:37;12.07;;;7.23;;
16075;SDS011;8142;48.242;11.644;2024-01-30T00:26:03;10.60;;;7.60;;
16075;SDS011;8142;48.242;11.644;2024-01-30T00:28:30;11.27;;;7.10;;
16075;SDS011;8142;48.242;11.644;2024-01-30T00:30:56;10.80;;;7.17;;
16075;SDS011;8142;48.242;11.644;2024-01-30T00:33:23;9.93;;;7.10;;
16075;SDS011;8142;48.242;11.644;2024-01-30T00:35:50;12.73;;;7.93;;
16075;SDS011;8142;48.242;11.644;2024-01-30T00:38:17;13.67;;;8.30;;
16075;SDS011;8142;48.242;11.644;2024-01-30T00:40:43;11.63;;;7.40;;
16075;SDS011;8142;48.242;11.644;2024-01-30T00:43:09;13.57;;;8.23;;
16075;SDS011;8142;48.242;11.644;2024-01-30T00:45:35;13.20;;;8.03;;
16075;SDS011;8142;48.242;11.644;2024-01-30T00:48:01;13.20;;;8.00;;
16075;SDS011;8142;48.242;11.644;2024-01-30T00:50:26;12.83;;;7.90;;
16075;SDS011;8142;48.242;11.644;2024-01-30T00:52:53;11.47;;;8.10;;
16075;SDS011;8142;48.242;11.644;2024-01-30T00:55:19;11.43;;;7.83;;
16075;SDS011;8142;48.242;11.644;2024-01-30T00:57:47;11.67;;;7.80;;
16075;SDS011;8142;48.242;11.644;2024-01-30T01:00:14;11.63;;;8.10;;
16075;SDS011;8142;48.242;11.644;2024-01-30T01:02:45;13.20;;;7.70;;
16075;SDS011;8142;48.242;11.644;2024-01-30T01:05:11;12.47;;;7.63;;
16075;SDS011;8142;48.242;11.644;2024-01-30T01:07:37;12.70;;;7.40;;
16075;SDS011;8142;48.242;11.644;2024-01-30T01:10:03;10.87;;;7.07;;
16075;SDS011;8142;48.242;11.644;2024-01-30T01:12:29;10.40;;;7.23;;
16075;SDS011;8142;48.242;11.644;2024-01-30T01:14:55;9.97;;;7.27;;
16075;SDS011;8142;48.242;11.644;2024-01-30T01:17:21;13.10;;;8.00;;
16075;SDS011;8142;48.242;11.644;2024-01-30T01:19:48;14.77;;;8.40;;
16075;SDS011;8142;48.242;11.644;2024-01-30T01:22:15;13.13;;;7.83;;
16075;SDS011;8142;48.242;11.644;2024-01-30T01:24:43;16.10;;;8.17;;
16075;SDS011;8142;48.242;11.644;2024-01-30T01:27:09;12.90;;;7.73;;
16075;SDS011;8142;48.242;11.644;2024-01-30T01:29:35;11.37;;;7.20;;
16075;SDS011;8142;48.242;11.644;2024-01-30T01:32:01;10.40;;;7.53;;
16075;SDS011;8142;48.242;11.644;2024-01-30T01:34:27;9.93;;;7.30;;
16075;SDS011;8142;48.242;11.644;2024-01-30T01:36:53;11.17;;;7.40;;
16075;SDS011;8142;48.242;11.644;2024-01-30T01:39:20;13.30;;;7.73;;
16075;SDS011;8142;48.242;11.644;2024-01-30T01:41:49;11.20;;;7.57;;
16075;SDS011;8142;48.242;11.644;2024-01-30T01:44:17;9.93;;;6.70;;
16075;SDS011;8142;48.242;11.644;2024-01-30T01:46:45;12.37;;;7.20;;
16075;SDS011;8142;48.242;11.644;2024-01-30T01:49:11;10.63;;;6.93;;
16075;SDS011;8142;48.242;11.644;2024-01-30T01:51:38;14.47;;;7.33;;
16075;SDS011;8142;48.242;11.644;2024-01-30T01:54:06;12.23;;;7.50;;
16075;SDS011;8142;48.242;11.644;2024-01-30T01:56:33;10.97;;;7.20;;
16075;SDS011;8142;48.242;11.644;2024-01-30T01:59:00;11.17;;;7.67;;
16075;SDS011;8142;48.242;11.644;2024-01-30T02:01:38;11.50;;;7.53;;
16075;SDS011;8142;48.242;11.644;2024-01-30T02:04:07;13.07;;;7.57;;
16075;SDS011;8142;48.242;11.644;2024-01-30T02:06:34;12.27;;;7.30;;
16075;SDS011;8142;48.242;11.644;2024-01-30T02:09:01;14.40;;;7.90;;
16075;SDS011;8142;48.242;11.644;2024-01-30T02:11:30;12.70;;;7.47;;
16075;SDS011;8142;48.242;11.644;2024-01-30T02:13:57;12.80;;;7.80;;
16075;SDS011;8142;48.242;11.644;2024-01-30T02:16:27;11.47;;;7.73;;
16075;SDS011;8142;48.242;11.644;2024-01-30T02:18:53;10.77;;;7.23;;
16075;SDS011;8142;48.242;11.644;2024-01-30T02:21:19;11.23;;;7.57;;
16075;SDS011;8142;48.242;11.644;2024-01-30T02:23:46;12.37;;;7.33;;
16075;SDS011;8142;48.242;11.644;2024-01-30T02:26:12;10.80;;;7.77;;
16075;SDS011;8142;48.242;11.644;2024-01-30T02:28:39;12.07;;;7.07;;
16075;SDS011;8142;48.242;11.644;2024-01-30T02:31:06;11.37;;;7.40;;
16075;SDS011;8142;48.242;11.644;2024-01-30T02:33:32;15.67;;;7.60;;
16075;SDS011;8142;48.242;11.644;2024-01-30T02:35:58;13.23;;;7.17;;
16075;SDS011;8142;48.242;11.644;2024-01-30T02:38:24;13.10;;;7.50;;
16075;SDS011;8142;48.242;11.644;2024-01-30T02:40:52;15.43;;;7.53;;
16075;SDS011;8142;48.242;11.644;2024-01-30T02:43:18;9.47;;;6.87;;
16075;SDS011;8142;48.242;11.644;2024-01-30T02:45:44;9.77;;;7.10;;
16075;SDS011;8142;48.242;11.644;2024-01-30T02:48:10;12.33;;;7.23;;
16075;SDS011;8142;48.242;11.644;2024-01-30T02:50:36;11.83;;;6.70;;
16075;SDS011;8142;48.242;11.644;2024-01-30T02:53:04;11.83;;;6.87;;
16075;SDS011;8142;48.242;11.644;2024-01-30T02:55:31;9.40;;;6.83;;
16075;SDS011;8142;48.242;11.644;2024-01-30T02:57:57;9.33;;;6.67;;
16075;SDS011;8142;48.242;11.644;2024-01-30T03:00:23;11.40;;;6.60;;
16075;SDS011;8142;48.242;11.644;2024-01-30T03:02:49;10.77;;;6.80;;
16075;SDS011;8142;48.242;11.644;2024-01-30T03:05:15;12.03;;;6.87;;
16075;SDS011;8142;48.242;11.644;2024-01-30T03:07:41;10.03;;;6.67;;
16075;SDS011;8142;48.242;11.644;2024-01-30T03:10:07;11.53;;;6.90;;
16075;SDS011;8142;48.242;11.644;2024-01-30T03:12:33;12.73;;;6.60;;
16075;SDS011;8142;48.242;11.644;2024-01-30T03:15:01;9.70;;;6.33;;
16075;SDS011;8142;48.242;11.644;2024-01-30T03:17:33;10.90;;;7.27;;
16075;SDS011;8142;48.242;11.644;2024-01-30T03:19:59;10.30;;;6.57;;
16075;SDS011;8142;48.242;11.644;2024-01-30T03:22:25;13.70;;;6.87;;
16075;SDS011;8142;48.242;11.644;2024-01-30T03:24:51;9.33;;;6.67;;
16075;SDS011;8142;48.242;11.644;2024-01-30T03:27:17;12.27;;;8.07;;
16075;SDS011;8142;48.242;11.644;2024-01-30T03:29:43;11.33;;;6.90;;
16075;SDS011;8142;48.242;11.644;2024-01-30T03:32:09;13.27;;;7.30;;
16075;SDS011;8142;48.242;11.644;2024-01-30T03:34:35;10.80;;;6.17;;
16075;SDS011;8142;48.242;11.644;2024-01-30T03:37:01;10.93;;;6.47;;
16075;SDS011;8142;48.242;11.644;2024-01-30T03:39:27;9.10;;;6.57;;
16075;SDS011;8142;48.242;11.644;2024-01-30T03:41:54;11.00;;;6.50;;
16075;SDS011;8142;48.242;11.644;2024-01-30T03:44:21;9.87;;;6.63;;
16075;SDS011;8142;48.242;11.644;2024-01-30T03:46:47;12.77;;;6.83;;
16075;SDS011;8142;48.242;11.644;2024-01-30T03:49:12;12.00;;;6.80;;
16075;SDS011;8142;48.242;11.644;2024-01-30T03:51:38;10.33;;;6.87;;
16075;SDS011;8142;48.242;11.644;2024-01-30T03:54:04;10.17;;;7.03;;
16075;SDS011;8142;48.242;11.644;2024-01-30T03:56:30;10.87;;;7.23;;
16075;SDS011;8142;48.242;11.644;2024-01-30T03:58:56;11.20;;;6.97;;
16075;SDS011;8142;48.242;11.644;2024-01-30T04:01:24;11.57;;;6.97;;
16075;SDS011;8142;48.242;11.644;2024-01-30T04:03:50;11.60;;;7.30;;
16075;SDS011;8142;48.242;11.644;2024-01-30T04:06:16;13.20;;;7.33;;
16075;SDS011;8142;48.242;11.644;2024-01-30T04:08:42;10.77;;;7.00;;
16075;SDS011;8142;48.242;11.644;2024-01-30T04:11:08;12.47;;;7.23;;
16075;SDS011;8142;48.242;11.644;2024-01-30T04:13:37;10.57;;;6.50;;
16075;SDS011;8142;48.242;11.644;2024-01-30T04:16:03;10.23;;;6.97;;
16075;SDS011;8142;48.242;11.644;2024-01-30T04:18:29;12.20;;;7.30;;
16075;SDS011;8142;48.242;11.644;2024-01-30T04:20:55;11.67;;;7.57;;
16075;SDS011;8142;48.242;11.644;2024-01-30T04:23:21;15.50;;;7.50;;
16075;SDS011;8142;48.242;11.644;2024-01-30T04:25:47;14.97;;;7.70;;
16075;SDS011;8142;48.242;11.644;2024-01-30T04:28:13;10.70;;;7.57;;
16075;SDS011;8142;48.242;11.644;2024-01-30T04:30:39;14.87;;;7.50;;
16075;SDS011;8142;48.242;11.644;2024-01-30T04:33:05;11.10;;;7.30;;
16075;SDS011;8142;48.242;11.644;2024-01-30T04:35:31;11.00;;;7.30;;
16075;SDS011;8142;48.242;11.644;2024-01-30T04:37:57;12.70;;;7.73;;
16075;SDS011;8142;48.242;11.644;2024-01-30T04:40:23;10.60;;;7.23;;
16075;SDS011;8142;48.242;11.644;2024-01-30T04:42:49;12.50;;;7.13;;
16075;SDS011;8142;48.242;11.644;2024-01-30T04:45:15;13.27;;;7.50;;
16075;SDS011;8142;48.242;11.644;2024-01-30T04:47:40;11.80;;;7.43;;
16075;SDS011;8142;48.242;11.644;2024-01-30T04:50:06;11.63;;;7.07;;
16075;SDS011;8142;48.242;11.644;2024-01-30T04:52:34;11.77;;;7.40;;
16075;SDS011;8142;48.242;11.644;2024-01-30T04:55:01;12.20;;;7.40;;
16075;SDS011;8142;48.242;11.644;2024-01-30T04:57:27;12.87;;;7.90;;
16075;SDS011;8142;48.242;11.644;2024-01-30T04:59:53;13.47;;;8.43;;
16075;SDS011;8142;48.242;11.644;2024-01-30T05:02:19;13.47;;;8.43;;
16075;SDS011;8142;48.242;11.644;2024-01-30T05:04:45;12.83;;;8.50;;
16075;SDS011;8142;48.242;11.644;2024-01-30T05:07:11;15.30;;;8.27;;
16075;SDS011;8142;48.242;11.644;2024-01-30T05:09:37;15.17;;;8.43;;
16075;SDS011;8142;48.242;11.644;2024-01-30T05:12:03;12.97;;;7.73;;
16075;SDS011;8142;48.242;11.644;2024-01-30T05:14:29;13.83;;;7.53;;
16075;SDS011;8142;48.242;11.644;2024-01-30T05:16:55;11.67;;;7.33;;
16075;SDS011;8142;48.242;11.644;2024-01-30T05:19:20;13.50;;;7.90;;
16075;SDS011;8142;48.242;11.644;2024-01-30T05:21:48;12.37;;;7.60;;
16075;SDS011;8142;48.242;11.644;2024-01-30T05:24:14;14.73;;;7.77;;
16075;SDS011;8142;48.242;11.644;2024-01-30T05:26:40;13.87;;;7.80;;
16075;SDS011;8142;48.242;11.644;2024-01-30T05:29:06;12.00;;;8.07;;
16075;SDS011;8142;48.242;11.644;2024-01-30T05:31:33;14.87;;;8.07;;
16075;SDS011;8142;48.242;11.644;2024-01-30T05:33:59;14.33;;;8.03;;
16075;SDS011;8142;48.242;11.644;2024-01-30T05:36:26;12.00;;;7.70;;
16075;SDS011;8142;48.242;11.644;2024-01-30T05:38:51;13.70;;;7.90;;
16075;SDS011;8142;48.242;11.644;2024-01-30T05:41:18;13.90;;;7.87;;
16075;SDS011;8142;48.242;11.644;2024-01-30T05:43:44;12.50;;;7.87;;
16075;SDS011;8142;48.242;11.644;2024-01-30T05:46:13;11.17;;;7.60;;
16075;SDS011;8142;48.242;11.644;2024-01-30T05:48:38;11.53;;;7.17;;
16075;SDS011;8142;48.242;11.644;2024-01-30T05:51:04;12.47;;;7.50;;
16075;SDS011;8142;48.242;11.644;2024-01-30T05:53:32;11.40;;;7.80;;
16075;SDS011;8142;48.242;11.644;2024-01-30T05:55:58;12.77;;;7.77;;
16075;SDS011;8142;48.242;11.644;2024-01-30T05:58:24;11.60;;;7.57;;
16075;SDS011;8142;48.242;11.644;2024-01-30T06:00:50;13.03;;;7.77;;
16075;SDS011;8142;48.242;11.644;2024-01-30T06:03:16;11.80;;;7.57;;
16075;SDS011;8142;48.242;11.644;2024-01-30T06:05:42;12.33;;;7.50;;
16075;SDS011;8142;48.242;11.644;2024-01-30T06:08:08;10.60;;;7.00;;
16075;SDS011;8142;48.242;11.644;2024-01-30T06:10:34;10.77;;;7.00;;
16075;SDS011;8142;48.242;11.644;2024-01-30T06:13:00;11.80;;;6.80;;
16075;SDS011;8142;48.242;11.644;2024-01-30T06:15:27;10.67;;;7.10;;
16075;SDS011;8142;48.242;11.644;2024-01-30T06:17:55;12.03;;;6.83;;
16075;SDS011;8142;48.242;11.644;2024-01-30T06:20:21;11.47;;;7.20;;
16075;SDS011;8142;48.242;11.644;2024-01-30T06:22:47;9.67;;;6.60;;
16075;SDS011;8142;48.242;11.644;2024-01-30T06:25:12;10.47;;;6.60;;
16075;SDS011;8142;48.242;11.644;2024-01-30T06:27:38;11.53;;;6.43;;
16075;SDS011;8142;48.242;11.644;2024-01-30T06:30:04;9.60;;;6.07;;
16075;SDS011;8142;48.242;11.644;2024-01-30T06:32:31;11.20;;;6.47;;
16075;SDS011;8142;48.242;11.644;2024-01-30T06:35:00;9.70;;;6.30;;
16075;SDS011;8142;48.242;11.644;2024-01-30T06:37:26;10.77;;;6.70;;
16075;SDS011;8142;48.242;11.644;2024-01-30T06:39:52;9.97;;;6.97;;
16075;SDS011;8142;48.242;11.644;2024-01-30T06:42:18;11.97;;;6.50;;
16075;SDS011;8142;48.242;11.644;2024-01-30T06:44:44;10.03;;;6.77;;
16075;SDS011;8142;48.242;11.644;2024-01-30T06:47:10;11.07;;;6.23;;
16075;SDS011;8142;48.242;11.644;2024-01-30T06:49:36;9.67;;;6.00;;
16075;SDS011;8142;48.242;11.644;2024-01-30T06:52:04;10.37;;;6.40;;
16075;SDS011;8142;48.242;11.644;2024-01-30T06:54:31;10.30;;;6.43;;
16075;SDS011;8142;48.242;11.644;2024-01-30T06:56:58;8.63;;;5.80;;
16075;SDS011;8142;48.242;11.644;2024-01-30T06:59:24;11.50;;;6.90;;
16075;SDS011;8142;48.242;11.644;2024-01-30T07:01:50;9.47;;;6.17;;
16075;SDS011;8142;48.242;11.644;2024-01-30T07:04:16;12.00;;;6.70;;
16075;SDS011;8142;48.242;11.644;2024-01-30T07:06:43;9.53;;;6.80;;
16075;SDS011;8142;48.242;11.644;2024-01-30T07:09:09;10.63;;;6.20;;
16075;SDS011;8142;48.242;11.644;2024-01-30T07:11:35;12.73;;;6.70;;
16075;SDS011;8142;48.242;11.644;2024-01-30T07:14:01;9.93;;;6.07;;
16075;SDS011;8142;48.242;11.644;2024-01-30T07:16:30;9.97;;;6.17;;
16075;SDS011;8142;48.242;11.644;2024-01-30T07:18:56;11.27;;;6.93;;
16075;SDS011;8142;48.242;11.644;2024-01-30T07:21:22;11.07;;;6.47;;
16075;SDS011;8142;48.242;11.644;2024-01-30T07:23:53;10.90;;;6.43;;
16075;SDS011;8142;48.242;11.644;2024-01-30T07:26:20;11.40;;;6.77;;
16075;SDS011;8142;48.242;11.644;2024-01-30T07:28:46;11.20;;;6.73;;
16075;SDS011;8142;48.242;11.644;2024-01-30T07:31:12;10.13;;;6.43;;
16075;SDS011;8142;48.242;11.644;2024-01-30T07:33:38;10.03;;;6.17;;
16075;SDS011;8142;48.242;11.644;2024-01-30T07:36:04;11.83;;;6.97;;
16075;SDS011;8142;48.242;11.644;2024-01-30T07:38:33;10.93;;;6.33;;
16075;SDS011;8142;48.242;11.644;2024-01-30T07:40:59;10.30;;;6.83;;
16075;SDS011;8142;48.242;11.644;2024-01-30T07:43:25;9.20;;;6.30;;
16075;SDS011;8142;48.242;11.644;2024-01-30T07:45:51;10.10;;;6.23;;
16075;SDS011;8142;48.242;11.644;2024-01-30T07:48:18;10.73;;;6.67;;
16075;SDS011;8142;48.242;11.644;2024-01-30T07:50:44;10.27;;;6.63;;
16075;SDS011;8142;48.242;11.644;2024-01-30T07:53:10;9.07;;;6.00;;
16075;SDS011;8142;48.242;11.644;2024-01-30T07:55:36;10.43;;;6.40;;
16075;SDS011;8142;48.242;11.644;2024-01-30T07:58:02;8.77;;;6.10;;
16075;SDS011;8142;48.242;11.644;2024-01-30T08:00:30;9.63;;;6.07;;
16075;SDS011;8142;48.242;11.644;2024-01-30T08:02:56;9.83;;;6.83;;
16075;SDS011;8142;48.242;11.644;2024-01-30T08:05:22;10.63;;;7.37;;
16075;SDS011;8142;48.242;11.644;2024-01-30T08:07:49;14.53;;;8.20;;
16075;SDS011;8142;48.242;11.644;2024-01-30T08:10:15;15.07;;;8.90;;
16075;SDS011;8142;48.242;11.644;2024-01-30T08:12:43;14.93;;;8.77;;
16075;SDS011;8142;48.242;11.644;2024-01-30T08:15:09;17.20;;;8.77;;
16075;SDS011;8142;48.242;11.644;2024-01-30T08:17:37;15.70;;;8.63;;
16075;SDS011;8142;48.242;11.644;2024-01-30T08:20:03;11.97;;;8.13;;
16075;SDS011;8142;48.242;11.644;2024-01-30T08:22:30;12.93;;;7.83;;
16075;SDS011;8142;48.242;11.644;2024-01-30T08:24:56;12.07;;;7.50;;
16075;SDS011;8142;48.242;11.644;2024-01-30T08:27:22;12.00;;;7.60;;
16075;SDS011;8142;48.242;11.644;2024-01-30T08:29:48;10.90;;;7.50;;
16075;SDS011;8142;48.242;11.644;2024-01-30T08:32:15;10.10;;;6.80;;
16075;SDS011;8142;48.242;11.644;2024-01-30T08:34:41;12.00;;;7.07;;
16075;SDS011;8142;48.242;11.644;2024-01-30T08:37:07;9.27;;;6.47;;
16075;SDS011;8142;48.242;11.644;2024-01-30T08:39:33;9.10;;;6.67;;
16075;SDS011;8142;48.242;11.644;2024-01-30T08:41:59;11.60;;;6.97;;
16075;SDS011;8142;48.242;11.644;2024-01-30T08:44:25;13.83;;;7.30;;
16075;SDS011;8142;48.242;11.644;2024-01-30T08:46:52;10.07;;;6.50;;
16075;SDS011;8142;48.242;11.644;2024-01-30T08:49:19;9.27;;;6.77;;
16075;SDS011;8142;48.242;11.644;2024-01-30T08:51:46;11.50;;;6.97;;
16075;SDS011;8142;48.242;11.644;2024-01-30T08:54:12;9.57;;;6.17;;
16075;SDS011;8142;48.242;11.644;2024-01-30T08:56:38;12.37;;;6.00;;
16075;SDS011;8142;48.242;11.644;2024-01-30T08:59:04;10.93;;;5.97;;
16075;SDS011;8142;48.242;11.644;2024-01-30T09:01:30;10.57;;;6.60;;
16075;SDS011;8142;48.242;11.644;2024-01-30T09:03:56;10.20;;;5.97;;
16075;SDS011;8142;48.242;11.644;2024-01-30T09:06:22;10.60;;;5.93;;
16075;SDS011;8142;48.242;11.644;2024-01-30T09:08:49;11.10;;;5.40;;
16075;SDS011;8142;48.242;11.644;2024-01-30T09:11:16;9.83;;;5.77;;
16075;SDS011;8142;48.242;11.644;2024-01-30T09:13:42;9.13;;;5.60;;
16075;SDS011;8142;48.242;11.644;2024-01-30T09:16:08;9.40;;;6.00;;
16075;SDS011;8142;48.242;11.644;2024-01-30T09:18:34;10.07;;;5.27;;
16075;SDS011;8142;48.242;11.644;2024-01-30T09:21:00;9.60;;;5.43;;
16075;SDS011;8142;48.242;11.644;2024-01-30T09:23:27;13.17;;;5.87;;
16075;SDS011;8142;48.242;11.644;2024-01-30T09:25:53;10.67;;;5.57;;
16075;SDS011;8142;48.242;11.644;2024-01-30T09:28:19;8.87;;;5.53;;
16075;SDS011;8142;48.242;11.644;2024-01-30T09:30:45;7.93;;;5.50;;
16075;SDS011;8142;48.242;11.644;2024-01-30T09:33:12;11.70;;;6.27;;
16075;SDS011;8142;48.242;11.644;2024-01-30T09:35:38;10.03;;;5.90;;
16075;SDS011;8142;48.242;11.644;2024-01-30T09:38:03;12.40;;;6.07;;
16075;SDS011;8142;48.242;11.644;2024-01-30T09:40:30;10.73;;;5.80;;
16075;SDS011;8142;48.242;11.644;2024-01-30T09:42:56;10.13;;;5.23;;
16075;SDS011;8142;48.242;11.644;2024-01-30T09:45:25;9.40;;;5.40;;
16075;SDS011;8142;48.242;11.644;2024-01-30T09:47:52;10.53;;;5.67;;
16075;SDS011;8142;48.242;11.644;2024-01-30T09:50:18;8.23;;;4.97;;
16075;SDS011;8142;48.242;11.644;2024-01-30T09:52:45;11.57;;;6.10;;
16075;SDS011;8142;48.242;11.644;2024-01-30T09:55:12;8.33;;;5.30;;
16075;SDS011;8142;48.242;11.644;2024-01-30T09:57:38;9.50;;;5.70;;
16075;SDS011;8142;48.242;11.644;2024-01-30T10:00:06;10.77;;;6.40;;
16075;SDS011;8142;48.242;11.644;2024-01-30T10:02:34;14.03;;;6.13;;
16075;SDS011;8142;48.242;11.644;2024-01-30T10:05:01;11.33;;;5.87;;
16075;SDS011;8142;48.242;11.644;2024-01-30T10:07:28;14.00;;;6.50;;
16075;SDS011;8142;48.242;11.644;2024-01-30T10:09:53;8.90;;;5.73;;
16075;SDS011;8142;48.242;11.644;2024-01-30T10:12:22;11.27;;;6.20;;
16075;SDS011;8142;48.242;11.644;2024-01-30T10:14:48;9.73;;;6.10;;
16075;SDS011;8142;48.242;11.644;2024-01-30T10:17:14;11.67;;;6.30;;
16075;SDS011;8142;48.242;11.644;2024-01-30T10:19:40;13.43;;;6.67;;
16075;SDS011;8142;48.242;11.644;2024-01-30T10:22:07;11.10;;;6.00;;
16075;SDS011;8142;48.242;11.644;2024-01-30T10:24:34;11.37;;;6.27;;
16075;SDS011;8142;48.242;11.644;2024-01-30T10:27:00;11.37;;;5.67;;
16075;SDS011;8142;48.242;11.644;2024-01-30T10:29:27;10.30;;;5.87;;
16075;SDS011;8142;48.242;11.644;2024-01-30T10:31:59;11.50;;;5.87;;
16075;SDS011;8142;48.242;11.644;2024-01-30T10:34:26;9.47;;;5.63;;
16075;SDS011;8142;48.242;11.644;2024-01-30T10:37:06;12.17;;;5.87;;
16075;SDS011;8142;48.242;11.644;2024-01-30T10:39:43;13.50;;;6.10;;
16075;SDS011;8142;48.242;11.644;2024-01-30T10:42:14;9.40;;;5.43;;
16075;SDS011;8142;48.242;11.644;2024-01-30T10:44:52;11.43;;;5.50;;
16075;SDS011;8142;48.242;11.644;2024-01-30T10:47:42;7.07;;;4.73;;
16075;SDS011;8142;48.242;11.644;2024-01-30T10:50:13;12.80;;;5.57;;
16075;SDS011;8142;48.242;11.644;2024-01-30T10:52:40;11.40;;;5.50;;
16075;SDS011;8142;48.242;11.644;2024-01-30T10:55:10;7.57;;;5.00;;
16075;SDS011;8142;48.242;11.644;2024-01-30T10:57:36;10.43;;;5.30;;
16075;SDS011;8142;48.242;11.644;2024-01-30T11:00:10;8.87;;;5.17;;
16075;SDS011;8142;48.242;11.644;2024-01-30T11:02:38;11.00;;;5.30;;
16075;SDS011;8142;48.242;11.644;2024-01-30T11:05:06;8.83;;;5.50;;
16075;SDS011;8142;48.242;11.644;2024-01-30T11:07:34;8.27;;;5.17;;
16075;SDS011;8142;48.242;11.644;2024-01-30T11:10:01;9.80;;;5.20;;
16075;SDS011;8142;48.242;11.644;2024-01-30T11:12:30;8.87;;;5.10;;
16075;SDS011;8142;48.242;11.644;2024-01-30T11:15:07;9.20;;;4.97;;
16075;SDS011;8142;48.242;11.644;2024-01-30T11:17:43;9.70;;;4.97;;
16075;SDS011;8142;48.242;11.644;2024-01-30T11:20:09;13.10;;;7.37;;
16075;SDS011;8142;48.242;11.644;2024-01-30T11:22:37;8.43;;;5.50;;
16075;SDS011;8142;48.242;11.644;2024-01-30T11:25:03;9.67;;;5.10;;
16075;SDS011;8142;48.242;11.644;2024-01-30T11:27:33;7.87;;;5.20;;
16075;SDS011;8142;48.242;11.644;2024-01-30T11:30:02;8.20;;;5.17;;
16075;SDS011;8142;48.242;11.644;2024-01-30T11:32:28;7.30;;;4.80;;
16075;SDS011;8142;48.242;11.644;2024-01-30T11:34:55;9.97;;;4.97;;
16075;SDS011;8142;48.242;11.644;2024-01-30T11:37:21;9.33;;;4.87;;
16075;SDS011;8142;48.242;11.644;2024-01-30T11:39:53;10.47;;;4.90;;
16075;SDS011;8142;48.242;11.644;2024-01-30T11:42:19;8.47;;;4.70;;
16075;SDS011;8142;48.242;11.644;2024-01-30T11:44:47;8.10;;;4.30;;
16075;SDS011;8142;48.242;11.644;2024-01-30T11:47:13;7.33;;;4.93;;
16075;SDS011;8142;48.242;11.644;2024-01-30T11:49:41;8.37;;;4.73;;
16075;SDS011;8142;48.242;11.644;2024-01-30T11:52:08;9.43;;;4.20;;
16075;SDS011;8142;48.242;11.644;2024-01-30T11:54:34;10.77;;;4.53;;
16075;SDS011;8142;48.242;11.644;2024-01-30T11:57:00;9.07;;;4.53;;
16075;SDS011;8142;48.242;11.644;2024-01-30T11:59:26;6.97;;;4.30;;
16075;SDS011;8142;48.242;11.644;2024-01-30T12:01:52;6.70;;;4.40;;
16075;SDS011;8142;48.242;11.644;2024-01-30T12:04:18;7.77;;;4.60;;
16075;SDS011;8142;48.242;11.644;2024-01-30T12:06:44;8.73;;;4.57;;
16075;SDS011;8142;48.242;11.644;2024-01-30T12:09:10;7.80;;;4.37;;
16075;SDS011;8142;48.242;11.644;2024-01-30T12:11:44;7.97;;;4.10;;
16075;SDS011;8142;48.242;11.644;2024-01-30T12:14:11;9.73;;;3.97;;
16075;SDS011;8142;48.242;11.644;2024-01-30T12:16:39;10.43;;;5.50;;
16075;SDS011;8142;48.242;11.644;2024-01-30T12:19:06;8.00;;;5.03;;
16075;SDS011;8142;48.242;11.644;2024-01-30T12:21:33;9.50;;;4.93;;
16075;SDS011;8142;48.242;11.644;2024-01-30T12:24:00;8.50;;;4.37;;
16075;SDS011;8142;48.242;11.644;2024-01-30T12:26:26;5.90;;;3.80;;
16075;SDS011;8142;48.242;11.644;2024-01-30T12:28:54;6.90;;;3.47;;
16075;SDS011;8142;48.242;11.644;2024-01-30T12:31:27;7.63;;;4.20;;
16075;SDS011;8142;48.242;11.644;2024-01-30T12:33:54;6.60;;;3.93;;
16075;SDS011;8142;48.242;11.644;2024-01-30T12:36:23;6.17;;;3.33;;
16075;SDS011;8142;48.242;11.644;2024-01-30T12:38:49;6.13;;;4.03;;
16075;SDS011;8142;48.242;11.644;2024-01-30T12:41:16;6.47;;;4.30;;
16075;SDS011;8142;48.242;11.644;2024-01-30T12:43:43;5.97;;;3.60;;
16075;SDS011;8142;48.242;11.644;2024-01-30T12:46:10;6.00;;;3.23;;
16075;SDS011;8142;48.242;11.644;2024-01-30T12:48:36;4.90;;;3.20;;
16075;SDS011;8142;48.242;11.644;2024-01-30T12:51:03;3.77;;;3.00;;
16075;SDS011;8142;48.242;11.644;2024-01-30T12:53:29;5.90;;;3.37;;
16075;SDS011;8142;48.242;11.644;2024-01-30T12:55:55;6.63;;;3.60;;
16075;SDS011;8142;48.242;11.644;2024-01-30T12:58:21;6.80;;;4.17;;
16075;SDS011;8142;48.242;11.644;2024-01-30T13:00:47;7.23;;;4.67;;
16075;SDS011;8142;48.242;11.644;2024-01-30T13:03:15;10.37;;;5.03;;
16075;SDS011;8142;48.242;11.644;2024-01-30T13:05:43;11.20;;;4.73;;
16075;SDS011;8142;48.242;11.644;2024-01-30T13:08:09;8.60;;;4.30;;
16075;SDS011;8142;48.242;11.644;2024-01-30T13:10:35;6.33;;;4.03;;
16075;SDS011;8142;48.242;11.644;2024-01-30T13:13:01;7.87;;;4.30;;
16075;SDS011;8142;48.242;11.644;2024-01-30T13:15:27;7.57;;;4.30;;
16075;SDS011;8142;48.242;11.644;2024-01-30T13:17:53;7.40;;;4.43;;
16075;SDS011;8142;48.242;11.644;2024-01-30T13:20:19;8.20;;;4.47;;
16075;SDS011;8142;48.242;11.644;2024-01-30T13:22:47;7.43;;;4.10;;
16075;SDS011;8142;48.242;11.644;2024-01-30T13:25:17;7.10;;;4.70;;
16075;SDS011;8142;48.242;11.644;2024-01-30T13:27:47;8.87;;;4.80;;
16075;SDS011;8142;48.242;11.644;2024-01-30T13:30:13;7.13;;;4.03;;
16075;SDS011;8142;48.242;11.644;2024-01-30T13:32:39;6.50;;;4.00;;
16075;SDS011;8142;48.242;11.644;2024-01-30T13:35:06;5.53;;;3.70;;
16075;SDS011;8142;48.242;11.644;2024-01-30T13:37:33;6.17;;;3.93;;
16075;SDS011;8142;48.242;11.644;2024-01-30T13:39:59;5.10;;;4.00;;
16075;SDS011;8142;48.242;11.644;2024-01-30T13:42:25;7.93;;;3.90;;
16075;SDS011;8142;48.242;11.644;2024-01-30T13:44:51;6.77;;;4.03;;
16075;SDS011;8142;48.242;11.644;2024-01-30T13:47:17;5.40;;;4.30;;
16075;SDS011;8142;48.242;11.644;2024-01-30T13:49:45;7.20;;;4.20;;
16075;SDS011;8142;48.242;11.644;2024-01-30T13:52:12;6.43;;;4.20;;
16075;SDS011;8142;48.242;11.644;2024-01-30T13:54:39;7.07;;;4.03;;
16075;SDS011;8142;48.242;11.644;2024-01-30T13:57:05;6.23;;;3.70;;
16075;SDS011;8142;48.242;11.644;2024-01-30T13:59:33;9.30;;;4.37;;
16075;SDS011;8142;48.242;11.644;2024-01-30T14:01:58;7.13;;;4.27;;
16075;SDS011;8142;48.242;11.644;2024-01-30T14:04:25;6.50;;;4.03;;
16075;SDS011;8142;48.242;11.644;2024-01-30T14:06:50;8.37;;;4.50;;
16075;SDS011;8142;48.242;11.644;2024-01-30T14:09:16;7.27;;;4.50;;
16075;SDS011;8142;48.242;11.644;2024-01-30T14:11:43;10.63;;;4.43;;
16075;SDS011;8142;48.242;11.644;2024-01-30T14:14:10;7.83;;;4.60;;
16075;SDS011;8142;48.242;11.644;2024-01-30T14:16:37;8.57;;;4.33;;
16075;SDS011;8142;48.242;11.644;2024-01-30T14:19:06;11.07;;;5.40;;
16075;SDS011;8142;48.242;11.644;2024-01-30T14:21:32;7.83;;;4.90;;
16075;SDS011;8142;48.242;11.644;2024-01-30T14:23:58;6.47;;;4.47;;
16075;SDS011;8142;48.242;11.644;2024-01-30T14:26:24;9.57;;;4.40;;
16075;SDS011;8142;48.242;11.644;2024-01-30T14:28:50;6.90;;;4.27;;
16075;SDS011;8142;48.242;11.644;2024-01-30T14:31:16;7.47;;;4.47;;
16075;SDS011;8142;48.242;11.644;2024-01-30T14:33:44;10.33;;;5.10;;
16075;SDS011;8142;48.242;11.644;2024-01-30T14:36:13;7.63;;;5.03;;